Phyllis Lauder — WDC6302 — position and weather

sailwx.info

Track history (hours):
 
Tides and Currents Weather Stations Pressure Air Temp Water Temp Dewpoint Dewpoint Depression Visibility Wind Speed Wind Dir Waves Ship Positions

Phyllis Lauder

Owner: Excell Marine Corporation, Cincinnati, OH. More information available from US FCC via Universal Licensing System and Coast Guard Vessel Documentation Center.

Last reported at 2015-May-13 14:27 UTC. Time now 2015-Jul-06 15:42 UTC.
Position N 30°43' W 091°21'.
Warning: this ship's position is 54 days out of date.

Length 46 m; draft 3 m.

Type: Towing. MMSI: 367054240.

Date/timePositionNaut miles runAvg speedWind from/ knotsBaromVisibWave heightAir tempDewpointWater temp
2015-May-13 14:27N 30°43' W 091°21'5 5.6
2015-May-13 13:31N 30°38' W 091°17'4 4.3
2015-May-13 12:33N 30°34' W 091°18'3 3.3
2015-May-13 11:33N 30°32' W 091°15'2 1.6
2015-May-13 10:33N 30°31' W 091°14'2 2.4
2015-May-13 09:33N 30°29' W 091°12'3 3.1
2015-May-13 08:33N 30°26' W 091°12'3 2.5
2015-May-13 07:33N 30°24' W 091°13'0 0.0
2015-May-13 06:33N 30°24' W 091°13'2 2.4
2015-May-13 05:33N 30°22' W 091°14'3 2.8
2015-May-13 04:31N 30°21' W 091°11'2 1.5
2015-May-13 03:15N 30°19' W 091°11'4 2.3
2015-May-13 01:33N 30°16' W 091°08'4 4.3
2015-May-13 00:32N 30°12' W 091°09'4 3.6
2015-May-12 23:29N 30°13' W 091°05'  
2015-May-09 14:11N 30°15' W 091°07'6 7.5
2015-May-09 13:24N 30°17' W 091°13'5 5.5
2015-May-09 12:33N 30°20' W 091°09'5 5.5
2015-May-09 11:33N 30°23' W 091°13'1 0.8
2015-May-09 10:33N 30°24' W 091°13'0 0.0
2015-May-09 09:33N 30°24' W 091°13'0 0.0
2015-May-09 08:33N 30°24' W 091°13'0 0.0
2015-May-09 07:33N 30°24' W 091°13'1 0.8
2015-May-09 06:33N 30°25' W 091°12'7 6.7
2015-May-09 05:33N 30°31' W 091°12'2 2.4
2015-May-09 04:33N 30°32' W 091°15'6 5.6
2015-May-09 03:33N 30°37' W 091°18'8 8.0
2015-May-09 02:32N 30°44' W 091°22'  
Track history (hours):
 
Tides and Currents Weather Stations Pressure Air Temp Water Temp Dewpoint Dewpoint Depression Visibility Wind Speed Wind Dir Waves Ship Positions

Phyllis Lauder

Owner: Excell Marine Corporation, Cincinnati, OH. More information available from US FCC via Universal Licensing System and Coast Guard Vessel Documentation Center.

Last reported at 2015-May-13 14:27 UTC. Time now 2015-Jul-06 15:42 UTC.
Position N 30°43' W 091°21'.
Warning: this ship's position is 54 days out of date.

Length 46 m; draft 3 m.

Type: Towing. MMSI: 367054240.

Date/timePositionNaut miles runAvg speedWind from/ knotsBaromVisibWave heightAir tempDewpointWater temp
2015-May-13 14:27N 30°43' W 091°21'5 5.6
2015-May-13 13:31N 30°38' W 091°17'4 4.3
2015-May-13 12:33N 30°34' W 091°18'3 3.3
2015-May-13 11:33N 30°32' W 091°15'2 1.6
2015-May-13 10:33N 30°31' W 091°14'2 2.4
2015-May-13 09:33N 30°29' W 091°12'3 3.1
2015-May-13 08:33N 30°26' W 091°12'3 2.5
2015-May-13 07:33N 30°24' W 091°13'0 0.0
2015-May-13 06:33N 30°24' W 091°13'2 2.4
2015-May-13 05:33N 30°22' W 091°14'3 2.8
2015-May-13 04:31N 30°21' W 091°11'2 1.5
2015-May-13 03:15N 30°19' W 091°11'4 2.3
2015-May-13 01:33N 30°16' W 091°08'4 4.3
2015-May-13 00:32N 30°12' W 091°09'4 3.6
2015-May-12 23:29N 30°13' W 091°05'  
2015-May-09 14:11N 30°15' W 091°07'6 7.5
2015-May-09 13:24N 30°17' W 091°13'5 5.5
2015-May-09 12:33N 30°20' W 091°09'5 5.5
2015-May-09 11:33N 30°23' W 091°13'1 0.8
2015-May-09 10:33N 30°24' W 091°13'0 0.0
2015-May-09 09:33N 30°24' W 091°13'0 0.0
2015-May-09 08:33N 30°24' W 091°13'0 0.0
2015-May-09 07:33N 30°24' W 091°13'1 0.8
2015-May-09 06:33N 30°25' W 091°12'7 6.7
2015-May-09 05:33N 30°31' W 091°12'2 2.4
2015-May-09 04:33N 30°32' W 091°15'6 5.6
2015-May-09 03:33N 30°37' W 091°18'8 8.0
2015-May-09 02:32N 30°44' W 091°22'  

Dump ship's entire track history